Time;durP1;ratioP1;P1;durP2;ratioP2;P2;SDS_P1;SDS_P2;PMS_P1;PMS_P2;Temp;Humidity;BMP_temperature;BMP_pressure;BME280_temperature;BME280_humidity;BME280_pressure;Samples;Min_cycle;Max_cycle;Signal;HPM_P1;HPM_P2
2022/12/10 00:00:15;;;;;;;;;;;;;;;16.97;48.95;100305.50;4997694;28;1128;-49
2022/12/10 00:02:41;;;;;;;;;;;;;;;16.77;48.44;100304.53;4997694;28;1156;-46
2022/12/10 00:05:06;;;;;;;;;;;;;;;17.65;48.85;100300.97;4997955;28;1176;-44
2022/12/10 00:07:31;;;;;;;;;;;;;;;16.99;48.86;100306.00;4997455;28;1987;-47
2022/12/10 00:09:57;;;;;;;;;;;;;;;17.11;49.02;100305.66;4997554;28;1227;-48
2022/12/10 00:12:22;;;;;;;;;;;;;;;17.08;49.18;100293.31;4997588;28;1195;-45
2022/12/10 00:14:48;;;;;;;;;;;;;;;16.82;49.07;100289.13;4997020;28;1100;-48
2022/12/10 00:17:13;;;;;;;;;;;;;;;18.10;48.52;100289.72;4995991;28;1199;-49
2022/12/10 00:19:38;;;;;;;;;;;;;;;17.16;49.20;100282.78;4985244;28;1141;-46
2022/12/10 00:22:04;;;;;;;;;;;;;;;16.91;48.28;100281.91;4997097;28;1148;-49
2022/12/10 00:24:29;;;;;;;;;;;;;;;17.74;49.17;100279.97;4996912;28;1223;-45
2022/12/10 00:26:55;;;;;;;;;;;;;;;17.18;49.18;100281.41;4997480;28;1910;-48
2022/12/10 00:29:20;;;;;;;;;;;;;;;17.19;49.32;100276.72;4997027;28;1152;-49
2022/12/10 00:31:45;;;;;;;;;;;;;;;17.82;48.90;100272.19;4997754;28;1148;-46
2022/12/10 00:34:11;;;;;;;;;;;;;;;17.07;49.02;100266.94;4997028;28;1129;-48
2022/12/10 00:36:46;;;;;;;;;;;;;;;17.00;48.23;100269.22;4996441;28;1232;-47
2022/12/10 00:39:13;;;;;;;;;;;;;;;16.67;47.64;100263.41;4997249;28;1161;-47
2022/12/10 00:41:39;;;;;;;;;;;;;;;16.60;47.23;100265.66;4997004;28;1204;-47
2022/12/10 00:44:04;;;;;;;;;;;;;;;17.57;48.62;100265.88;4997338;28;1093;-45
2022/12/10 00:46:30;;;;;;;;;;;;;;;16.87;48.69;100267.09;4996612;28;1223;-47
2022/12/10 00:48:57;;;;;;;;;;;;;;;17.20;48.91;100261.88;4979337;28;1978;-48
2022/12/10 00:51:23;;;;;;;;;;;;;;;17.34;49.23;100262.81;4997118;28;1101;-45
2022/12/10 00:53:49;;;;;;;;;;;;;;;16.86;48.62;100262.72;4996470;28;1153;-44
2022/12/10 00:56:15;;;;;;;;;;;;;;;17.84;48.83;100253.44;4978911;28;1199;-47
2022/12/10 00:58:40;;;;;;;;;;;;;;;17.10;49.05;100252.63;4979122;28;1461;-50
2022/12/10 01:01:06;;;;;;;;;;;;;;;17.31;49.37;100244.19;4996990;28;1204;-47
2022/12/10 01:03:32;;;;;;;;;;;;;;;17.53;49.12;100242.81;4996838;28;1203;-46
2022/12/10 01:05:57;;;;;;;;;;;;;;;17.41;49.64;100249.53;4996627;28;1211;-45
2022/12/10 01:08:22;;;;;;;;;;;;;;;18.99;47.57;100244.06;4996636;28;1902;-48
2022/12/10 01:10:52;;;;;;;;;;;;;;;17.71;49.31;100238.47;4996537;28;1216;-45
2022/12/10 01:13:17;;;;;;;;;;;;;;;17.19;48.47;100232.75;4996694;28;1117;-49
2022/12/10 01:15:44;;;;;;;;;;;;;;;17.02;47.67;100234.00;4979355;28;1224;-49
2022/12/10 01:18:09;;;;;;;;;;;;;;;17.07;47.96;100233.97;4996246;28;1192;-47
2022/12/10 01:20:36;;;;;;;;;;;;;;;17.35;48.92;100242.47;4996857;28;1185;-44
2022/12/10 01:23:01;;;;;;;;;;;;;;;16.99;48.41;100236.53;4979147;28;1156;-47
2022/12/10 01:25:27;;;;;;;;;;;;;;;16.74;47.65;100233.69;4996806;28;1140;-49
2022/12/10 01:27:52;;;;;;;;;;;;;;;17.14;48.37;100221.81;4996192;28;1887;-45
2022/12/10 01:30:18;;;;;;;;;;;;;;;17.51;49.04;100234.88;4997063;28;1160;-45
2022/12/10 01:32:43;;;;;;;;;;;;;;;16.99;48.63;100223.63;4979250;28;1598;-48
2022/12/10 01:35:08;;;;;;;;;;;;;;;18.56;48.40;100214.72;4978500;28;2656;-45
2022/12/10 01:37:34;;;;;;;;;;;;;;;17.52;49.73;100211.78;4996442;28;1065;-44
2022/12/10 01:39:59;;;;;;;;;;;;;;;17.19;48.56;100210.78;4979212;28;1209;-46
2022/12/10 01:42:25;;;;;;;;;;;;;;;16.99;47.86;100217.31;4996486;28;1081;-48
2022/12/10 01:44:56;;;;;;;;;;;;;;;17.60;49.05;100215.81;4996585;28;1200;-47
2022/12/10 01:47:21;;;;;;;;;;;;;;;17.00;48.93;100211.53;4995933;28;1902;-47
2022/12/10 01:49:47;;;;;;;;;;;;;;;18.08;49.04;100201.16;4996438;28;1176;-47
2022/12/10 01:52:12;;;;;;;;;;;;;;;17.60;49.47;100196.56;4963052;28;1146;-49
2022/12/10 01:54:39;;;;;;;;;;;;;;;17.16;48.55;100197.63;4979165;28;1297;-49
2022/12/10 01:57:14;;;;;;;;;;;;;;;16.89;48.03;100190.78;4978808;28;1393;-46
2022/12/10 01:59:39;;;;;;;;;;;;;;;16.76;47.41;100192.25;4959284;28;1109;-49
2022/12/10 02:02:13;;;;;;;;;;;;;;;17.72;48.88;100185.94;4992940;28;1180;-49
2022/12/10 02:04:50;;;;;;;;;;;;;;;17.02;48.51;100192.81;4978741;28;1204;-48
2022/12/10 02:07:19;;;;;;;;;;;;;;;16.77;47.98;100178.22;4999734;28;1913;-46
2022/12/10 02:09:48;;;;;;;;;;;;;;;17.42;48.78;100179.72;4982155;28;1141;-48
2022/12/10 02:12:14;;;;;;;;;;;;;;;16.95;48.43;100181.34;4965101;28;1209;-45
2022/12/10 02:14:52;;;;;;;;;;;;;;;16.64;47.98;100176.13;4999962;28;1153;-49
2022/12/10 02:17:26;;;;;;;;;;;;;;;17.52;48.68;100173.28;4999902;28;1168;-46
2022/12/10 02:19:52;;;;;;;;;;;;;;;16.91;48.54;100177.56;4999415;28;1423;-47
2022/12/10 02:22:19;;;;;;;;;;;;;;;17.99;48.80;100170.72;4982258;28;1164;-46
2022/12/10 02:24:45;;;;;;;;;;;;;;;17.44;49.23;100169.25;4965922;28;1223;-49
2022/12/10 02:27:16;;;;;;;;;;;;;;;17.04;48.71;100173.28;4965751;28;1906;-44
2022/12/10 02:29:41;;;;;;;;;;;;;;;16.86;47.84;100174.84;4982130;28;1224;-45
2022/12/10 02:32:33;;;;;;;;;;;;;;;17.04;48.06;100181.53;4966332;28;1530;-51
2022/12/10 02:35:02;;;;;;;;;;;;;;;17.04;48.83;100171.38;4985810;28;1184;-45
2022/12/10 02:37:28;;;;;;;;;;;;;;;18.07;48.66;100170.06;4998200;28;1135;-47
2022/12/10 02:39:57;;;;;;;;;;;;;;;18.32;49.01;100165.28;4953034;28;1162;-44
2022/12/10 02:42:25;;;;;;;;;;;;;;;17.41;49.42;100178.09;4966233;28;1237;-45
2022/12/10 02:44:52;;;;;;;;;;;;;;;17.02;48.36;100173.59;4982061;28;1353;-45
2022/12/10 02:47:20;;;;;;;;;;;;;;;16.91;47.47;100172.06;4962315;28;1981;-46
2022/12/10 02:49:47;;;;;;;;;;;;;;;16.85;46.53;100173.19;4974900;28;1197;-45
2022/12/10 02:52:12;;;;;;;;;;;;;;;17.32;48.72;100160.63;4965747;28;1592;-45
2022/12/10 02:54:45;;;;;;;;;;;;;;;16.84;48.24;100166.06;4981789;28;1390;-50
2022/12/10 02:57:18;;;;;;;;;;;;;;;17.13;48.75;100157.00;4981266;28;1365;-45
2022/12/10 03:00:05;;;;;;;;;;;;;;;17.10;48.82;100150.97;4981150;28;1141;-47
2022/12/10 03:02:38;;;;;;;;;;;;;;;17.03;48.74;100161.50;4969336;28;1964;-45
2022/12/10 03:05:05;;;;;;;;;;;;;;;17.58;49.04;100152.03;4998661;28;1101;-49
2022/12/10 03:07:49;;;;;;;;;;;;;;;17.00;48.90;100145.59;4967979;28;1980;-49
2022/12/10 03:10:24;;;;;;;;;;;;;;;16.76;47.99;100142.81;4981143;28;1149;-47
2022/12/10 03:12:50;;;;;;;;;;;;;;;17.24;49.25;100139.28;4977626;28;907;-44
2022/12/10 03:15:15;;;;;;;;;;;;;;;16.82;48.63;100143.59;4981928;28;1200;-46
2022/12/10 03:17:41;;;;;;;;;;;;;;;18.13;48.48;100141.38;4980519;28;1165;-46
2022/12/10 03:20:08;;;;;;;;;;;;;;;17.26;49.27;100150.78;4980911;28;1213;-47
2022/12/10 03:22:33;;;;;;;;;;;;;;;16.91;48.71;100159.16;4981125;28;1113;-46
2022/12/10 03:24:59;;;;;;;;;;;;;;;16.79;48.32;100157.88;4972115;28;939;-47
2022/12/10 03:27:24;;;;;;;;;;;;;;;17.44;49.08;100151.94;4976315;28;1973;-47
2022/12/10 03:29:53;;;;;;;;;;;;;;;16.95;48.42;100159.38;4981551;28;1141;-46
2022/12/10 03:32:20;;;;;;;;;;;;;;;18.55;48.43;100155.28;4980982;28;1227;-45
2022/12/10 03:34:45;;;;;;;;;;;;;;;17.48;49.21;100143.94;4981204;28;1137;-47
2022/12/10 03:37:11;;;;;;;;;;;;;;;17.15;48.59;100135.53;4980702;28;1011;-46
2022/12/10 03:39:37;;;;;;;;;;;;;;;16.99;47.65;100129.44;4967358;28;1098;-45
2022/12/10 03:42:03;;;;;;;;;;;;;;;16.81;47.17;100133.72;4980341;28;1212;-45
2022/12/10 03:44:29;;;;;;;;;;;;;;;17.54;48.61;100131.75;4998256;28;1261;-45
2022/12/10 03:46:55;;;;;;;;;;;;;;;16.97;48.83;100137.13;4981025;28;1906;-47
2022/12/10 03:49:20;;;;;;;;;;;;;;;17.43;48.75;100131.06;4997482;28;884;-50
2022/12/10 03:51:45;;;;;;;;;;;;;;;17.43;49.46;100125.56;4996483;28;1148;-46
2022/12/10 03:54:11;;;;;;;;;;;;;;;16.99;49.00;100130.22;4986404;28;1149;-48
2022/12/10 03:56:37;;;;;;;;;;;;;;;16.82;47.99;100121.63;4997719;28;1243;-46
2022/12/10 03:59:03;;;;;;;;;;;;;;;16.59;47.61;100119.38;4984260;28;1152;-50
2022/12/10 04:01:28;;;;;;;;;;;;;;;16.56;46.66;100119.13;4986200;28;1001;-50
2022/12/10 04:03:54;;;;;;;;;;;;;;;17.64;48.18;100112.34;4995483;28;1089;-46
2022/12/10 04:06:19;;;;;;;;;;;;;;;16.88;48.84;100112.22;4997660;28;1302;-47
2022/12/10 04:08:45;;;;;;;;;;;;;;;16.75;47.94;100111.78;4997673;28;1906;-49
2022/12/10 04:11:11;;;;;;;;;;;;;;;17.62;48.46;100111.84;4998018;28;1117;-46
2022/12/10 04:16:26;;;;;;;;;;;;;;;17.45;49.26;100120.63;4985825;28;1196;-43
2022/12/10 04:19:02;;;;;;;;;;;;;;;17.59;49.20;100115.19;4997296;28;1077;-48
2022/12/10 04:26:56;;;;;;;;;;;;;;;17.48;49.55;100124.72;4997298;28;1977;-52
2022/12/10 04:29:22;;;;;;;;;;;;;;;17.06;48.80;100113.41;4979990;28;1196;-52
2022/12/10 04:31:48;;;;;;;;;;;;;;;16.77;47.77;100112.31;4997395;28;1188;-44
2022/12/10 04:34:13;;;;;;;;;;;;;;;16.64;47.22;100118.50;4997226;28;1165;-51
2022/12/10 04:36:39;;;;;;;;;;;;;;;17.51;48.64;100118.63;4997031;28;1234;-52
2022/12/10 04:39:04;;;;;;;;;;;;;;;17.28;49.50;100110.13;4997167;28;1246;-47
2022/12/10 04:41:29;;;;;;;;;;;;;;;16.89;48.92;100111.94;4996808;28;1140;-47
2022/12/10 04:43:55;;;;;;;;;;;;;;;16.76;48.87;100116.19;4996995;28;1136;-50
2022/12/10 04:46:20;;;;;;;;;;;;;;;17.65;49.22;100114.00;4996999;28;1149;-48
2022/12/10 04:48:46;;;;;;;;;;;;;;;16.98;49.08;100109.38;4996693;28;1921;-50
2022/12/10 04:51:11;;;;;;;;;;;;;;;17.38;49.37;100106.41;4996961;28;1172;-49
2022/12/10 04:53:37;;;;;;;;;;;;;;;17.26;49.64;100106.84;4996434;28;1145;-51
2022/12/10 04:56:04;;;;;;;;;;;;;;;16.95;48.73;100111.91;4996843;28;1201;-48
2022/12/10 04:58:30;;;;;;;;;;;;;;;16.76;48.46;100124.41;4996717;28;1137;-51
2022/12/10 05:01:06;;;;;;;;;;;;;;;17.22;49.07;100123.09;4996449;28;1180;-53
2022/12/10 05:03:31;;;;;;;;;;;;;;;16.90;49.02;100112.75;4996540;28;1195;-51
2022/12/10 05:06:00;;;;;;;;;;;;;;;18.52;48.06;100113.75;4996730;28;1294;-54
2022/12/10 05:08:26;;;;;;;;;;;;;;;17.32;49.58;100119.41;4984264;28;1967;-54
2022/12/10 05:10:51;;;;;;;;;;;;;;;17.07;48.68;100120.53;4996498;28;1195;-54
2022/12/10 05:13:17;;;;;;;;;;;;;;;16.83;47.82;100125.97;4996355;28;1140;-53
2022/12/10 05:15:42;;;;;;;;;;;;;;;16.70;46.90;100139.28;4996604;28;1132;-55
2022/12/10 05:18:08;;;;;;;;;;;;;;;17.69;48.67;100136.25;4996942;28;1152;-49
2022/12/10 05:20:33;;;;;;;;;;;;;;;16.99;48.90;100132.16;4996988;28;1148;-55
2022/12/10 05:25:54;;;;;;;;;;;;;;;17.44;48.72;100133.50;4996221;28;877;-55
2022/12/10 05:28:20;;;;;;;;;;;;;;;16.88;48.42;100134.16;4996644;28;1964;-55
2022/12/10 05:30:46;;;;;;;;;;;;;;;18.30;48.33;100137.25;4996780;28;1113;-53
2022/12/10 05:33:11;;;;;;;;;;;;;;;17.49;49.53;100131.81;4996201;28;1231;-55
2022/12/10 05:35:36;;;;;;;;;;;;;;;17.01;48.89;100133.53;4996826;28;1170;-52
2022/12/10 05:38:02;;;;;;;;;;;;;;;16.87;47.92;100138.03;4996129;28;926;-50
2022/12/10 05:40:28;;;;;;;;;;;;;;;16.73;47.36;100140.63;4992927;28;1207;-48
2022/12/10 05:42:54;;;;;;;;;;;;;;;17.28;49.09;100124.66;4991654;28;1141;-52
2022/12/10 05:45:19;;;;;;;;;;;;;;;16.85;48.44;100137.50;4998964;28;1144;-52
2022/12/10 05:47:44;;;;;;;;;;;;;;;17.65;48.91;100130.50;4999877;28;1897;-53
2022/12/10 05:50:10;;;;;;;;;;;;;;;17.16;49.32;100128.94;5000415;28;927;-50
2022/12/10 05:52:35;;;;;;;;;;;;;;;17.63;49.30;100138.25;5000741;28;1165;-49
2022/12/10 05:55:01;;;;;;;;;;;;;;;18.27;48.83;100143.34;4999776;28;1148;-51
2022/12/10 05:57:26;;;;;;;;;;;;;;;17.30;49.52;100140.84;5000085;28;1231;-50
2022/12/10 05:59:51;;;;;;;;;;;;;;;16.97;48.55;100151.69;4999608;28;1105;-52
2022/12/10 06:02:17;;;;;;;;;;;;;;;17.43;49.68;100145.66;4999419;28;939;-55
2022/12/10 06:04:42;;;;;;;;;;;;;;;16.99;49.07;100140.41;4999335;28;1212;-54
2022/12/10 06:07:09;;;;;;;;;;;;;;;16.88;47.78;100143.25;4999969;28;1973;-54
2022/12/10 06:09:35;;;;;;;;;;;;;;;17.28;48.62;100127.41;4999568;28;1113;-51
2022/12/10 06:12:00;;;;;;;;;;;;;;;17.03;48.72;100125.78;4999142;28;1074;-53
2022/12/10 06:14:25;;;;;;;;;;;;;;;16.81;48.54;100134.50;4999046;28;1228;-53
2022/12/10 06:16:51;;;;;;;;;;;;;;;17.85;48.88;100134.91;4998758;28;1312;-54
2022/12/10 06:19:17;;;;;;;;;;;;;;;17.03;49.18;100136.78;4999000;28;1173;-54
2022/12/10 06:21:42;;;;;;;;;;;;;;;16.85;48.11;100143.00;4999353;28;1259;-52
2022/12/10 06:24:07;;;;;;;;;;;;;;;17.42;49.07;100134.94;4998812;28;1209;-55
2022/12/10 06:26:33;;;;;;;;;;;;;;;17.03;48.99;100139.53;4998541;28;2511;-56
2022/12/10 06:29:00;;;;;;;;;;;;;;;17.99;47.29;100140.47;4999133;28;1921;-55
2022/12/10 06:31:25;;;;;;;;;;;;;;;17.35;48.97;100132.56;4999095;28;1177;-54
2022/12/10 06:33:51;;;;;;;;;;;;;;;17.01;49.94;100139.00;4998820;28;1208;-56
2022/12/10 06:36:17;;;;;;;;;;;;;;;16.80;50.60;100145.78;4998754;28;1291;-56
2022/12/10 06:38:42;;;;;;;;;;;;;;;16.59;51.08;100143.25;4998540;28;883;-54
2022/12/10 06:41:08;;;;;;;;;;;;;;;16.49;51.50;100148.84;4999014;28;1156;-54
2022/12/10 06:43:34;;;;;;;;;;;;;;;16.34;51.68;100147.03;4998877;28;1085;-52
2022/12/10 06:46:03;;;;;;;;;;;;;;;16.26;52.01;100143.00;4998103;28;1287;-51
2022/12/10 06:48:28;;;;;;;;;;;;;;;16.15;52.38;100138.69;4989260;28;1983;-51
2022/12/10 06:50:55;;;;;;;;;;;;;;;16.05;52.70;100145.06;4991489;28;1322;-56
2022/12/10 06:53:20;;;;;;;;;;;;;;;15.93;52.68;100148.16;4987237;28;1144;-52
2022/12/10 06:55:45;;;;;;;;;;;;;;;15.87;53.03;100150.13;4998533;28;2415;-52
2022/12/10 06:58:11;;;;;;;;;;;;;;;15.78;53.07;100156.44;4979768;28;1219;-50
2022/12/10 07:00:36;;;;;;;;;;;;;;;15.72;53.37;100156.50;4989780;28;1117;-52
2022/12/10 07:03:02;;;;;;;;;;;;;;;15.64;53.25;100150.75;4998701;28;922;-52
2022/12/10 07:05:27;;;;;;;;;;;;;;;15.57;53.46;100146.44;4998628;28;1184;-51
2022/12/10 07:07:53;;;;;;;;;;;;;;;15.51;53.76;100142.06;4997931;28;1913;-46
2022/12/10 07:10:18;;;;;;;;;;;;;;;15.43;53.84;100141.84;4981042;28;1531;-56
2022/12/10 07:12:44;;;;;;;;;;;;;;;16.63;51.61;100138.00;4998404;28;1120;-53
2022/12/10 07:15:09;;;;;;;;;;;;;;;16.72;51.43;100137.09;4998092;28;1073;-50
2022/12/10 07:17:35;;;;;;;;;;;;;;;16.11;52.98;100134.88;4998009;28;1177;-50
2022/12/10 07:20:00;;;;;;;;;;;;;;;15.88;53.85;100134.50;4979526;28;1213;-51
2022/12/10 07:22:26;;;;;;;;;;;;;;;15.72;54.14;100134.56;4978872;28;1185;-51
2022/12/10 07:24:51;;;;;;;;;;;;;;;15.59;54.08;100126.16;4978458;28;1185;-49
2022/12/10 07:27:17;;;;;;;;;;;;;;;15.50;54.50;100136.84;4980386;28;1985;-49
2022/12/10 07:29:43;;;;;;;;;;;;;;;15.46;54.54;100138.53;4995552;28;1235;-48
2022/12/10 07:32:09;;;;;;;;;;;;;;;16.46;52.57;100143.94;4997233;28;1272;-51
2022/12/10 07:34:35;;;;;;;;;;;;;;;16.83;51.54;100136.97;4997849;28;1124;-54
2022/12/10 07:37:00;;;;;;;;;;;;;;;16.09;53.48;100135.16;4997860;28;1200;-51
2022/12/10 07:39:26;;;;;;;;;;;;;;;15.85;54.18;100146.00;4998152;28;1143;-55
2022/12/10 07:41:52;;;;;;;;;;;;;;;15.67;54.45;100131.84;4997926;28;1140;-53
2022/12/10 07:44:19;;;;;;;;;;;;;;;15.57;54.37;100135.47;4997846;28;1164;-53
2022/12/10 07:46:44;;;;;;;;;;;;;;;15.50;54.43;100123.16;4997783;28;1144;-53
2022/12/10 07:49:10;;;;;;;;;;;;;;;15.39;54.70;100116.94;4997584;28;1975;-51
2022/12/10 07:51:36;;;;;;;;;;;;;;;16.43;53.12;100124.16;4987705;28;1152;-47
2022/12/10 07:54:01;;;;;;;;;;;;;;;16.86;51.81;100122.69;4994141;28;1141;-54
2022/12/10 07:56:26;;;;;;;;;;;;;;;16.09;53.84;100115.97;4997282;28;1815;-51
2022/12/10 07:58:52;;;;;;;;;;;;;;;15.83;54.55;100116.13;4984029;28;1097;-50
2022/12/10 08:01:19;;;;;;;;;;;;;;;15.66;54.68;100121.97;4997638;28;1120;-47
2022/12/10 08:03:44;;;;;;;;;;;;;;;15.58;54.51;100122.56;4997202;28;1211;-50
2022/12/10 08:06:14;;;;;;;;;;;;;;;15.43;55.01;100103.47;4996884;28;1163;-48
2022/12/10 08:08:39;;;;;;;;;;;;;;;15.38;54.79;100105.13;4994676;28;1918;-52
2022/12/10 08:11:05;;;;;;;;;;;;;;;16.91;51.84;100101.50;4986662;28;1133;-50
2022/12/10 08:13:30;;;;;;;;;;;;;;;16.43;53.02;100107.69;4996871;28;1116;-53
2022/12/10 08:16:06;;;;;;;;;;;;;;;15.95;54.08;100109.47;4996831;28;1187;-50
2022/12/10 08:18:31;;;;;;;;;;;;;;;15.73;54.86;100095.06;4997246;28;1097;-51
2022/12/10 08:20:57;;;;;;;;;;;;;;;15.78;54.79;100098.88;4996892;28;1160;-49
2022/12/10 08:23:22;;;;;;;;;;;;;;;17.20;51.25;100097.03;4985211;28;1132;-51
2022/12/10 08:25:48;;;;;;;;;;;;;;;16.29;53.53;100093.03;4994874;28;1841;-47
2022/12/10 08:28:13;;;;;;;;;;;;;;;15.97;54.14;100090.84;4997214;28;1902;-53
2022/12/10 08:30:39;;;;;;;;;;;;;;;15.80;54.49;100094.78;4996838;28;1171;-52
2022/12/10 08:33:04;;;;;;;;;;;;;;;15.65;54.77;100087.44;4993767;28;1169;-46
2022/12/10 08:35:30;;;;;;;;;;;;;;;15.58;54.72;100097.91;4996853;28;1073;-52
2022/12/10 08:37:55;;;;;;;;;;;;;;;15.50;54.71;100090.28;4982791;28;947;-47
2022/12/10 08:40:20;;;;;;;;;;;;;;;15.37;55.04;100078.03;4996923;28;1152;-53
2022/12/10 08:42:46;;;;;;;;;;;;;;;15.84;54.57;100076.66;4993334;28;1089;-48
2022/12/10 08:45:11;;;;;;;;;;;;;;;17.23;51.44;100069.78;4986808;28;1118;-46
2022/12/10 08:47:37;;;;;;;;;;;;;;;16.41;53.35;100071.50;4997003;28;1906;-48
2022/12/10 08:50:03;;;;;;;;;;;;;;;15.98;54.48;100067.81;4996418;28;1224;-51
2022/12/10 08:52:29;;;;;;;;;;;;;;;15.79;54.71;100070.38;4993331;28;1069;-48
2022/12/10 08:54:54;;;;;;;;;;;;;;;15.66;54.61;100069.91;4985284;28;1196;-45
2022/12/10 08:57:20;;;;;;;;;;;;;;;16.60;53.03;100065.28;4996366;28;2137;-48
2022/12/10 08:59:45;;;;;;;;;;;;;;;16.79;52.45;100059.03;4983466;28;1149;-51
2022/12/10 09:02:11;;;;;;;;;;;;;;;16.13;54.26;100059.44;4996344;28;1156;-49
2022/12/10 09:04:36;;;;;;;;;;;;;;;15.93;54.50;100052.19;4982881;28;1160;-51
2022/12/10 09:07:01;;;;;;;;;;;;;;;15.73;54.80;100056.69;4997036;28;1133;-48
2022/12/10 09:09:27;;;;;;;;;;;;;;;15.67;54.75;100051.53;4996435;28;1965;-47
2022/12/10 09:11:52;;;;;;;;;;;;;;;15.54;54.81;100044.78;4996677;28;1136;-51
2022/12/10 09:14:18;;;;;;;;;;;;;;;15.46;55.20;100039.88;4995824;28;1116;-51
2022/12/10 09:16:43;;;;;;;;;;;;;;;16.56;53.44;100042.28;4982197;28;1101;-49
2022/12/10 09:19:09;;;;;;;;;;;;;;;16.55;53.23;100048.84;4996167;28;1610;-48
2022/12/10 09:21:34;;;;;;;;;;;;;;;15.99;54.47;100042.84;4996044;28;1181;-48
2022/12/10 09:24:00;;;;;;;;;;;;;;;15.77;55.01;100036.94;4996369;28;1117;-51
2022/12/10 09:26:25;;;;;;;;;;;;;;;15.64;55.04;100036.50;4995874;28;2448;-51
2022/12/10 09:28:52;;;;;;;;;;;;;;;15.52;55.44;100033.28;4996110;28;1910;-47
2022/12/10 09:31:18;;;;;;;;;;;;;;;15.47;55.04;100033.31;4996382;28;1112;-50
2022/12/10 09:33:43;;;;;;;;;;;;;;;16.61;53.49;100031.25;4996187;28;1179;-49
2022/12/10 09:36:09;;;;;;;;;;;;;;;16.80;52.76;100023.03;4996204;28;1189;-50
2022/12/10 09:38:36;;;;;;;;;;;;;;;16.05;54.70;100025.22;4995949;28;1195;-49
2022/12/10 09:41:04;;;;;;;;;;;;;;;15.82;54.95;100015.00;4996142;28;1176;-49
2022/12/10 09:43:38;;;;;;;;;;;;;;;15.70;55.04;100005.19;4996159;28;1209;-51
2022/12/10 09:46:08;;;;;;;;;;;;;;;15.57;55.11;100003.09;4978903;28;1125;-48
2022/12/10 09:48:52;;;;;;;;;;;;;;;15.46;55.41;99996.06;4975207;28;1910;-47
2022/12/10 09:51:20;;;;;;;;;;;;;;;16.43;53.84;99991.66;4970401;28;1137;-47
2022/12/10 09:53:46;;;;;;;;;;;;;;;17.10;52.11;99994.41;4978078;28;1339;-49
2022/12/10 09:56:18;;;;;;;;;;;;;;;16.22;54.19;99986.38;4978236;28;2279;-47
2022/12/10 09:58:44;;;;;;;;;;;;;;;15.95;54.86;99983.34;4977962;28;1358;-48
2022/12/10 10:01:09;;;;;;;;;;;;;;;15.79;55.00;99977.16;4995263;28;1349;-49
2022/12/10 10:03:38;;;;;;;;;;;;;;;15.65;55.31;99975.06;4977444;28;1291;-51
2022/12/10 10:06:04;;;;;;;;;;;;;;;15.52;55.29;99964.78;4995384;28;1330;-50
2022/12/10 10:08:36;;;;;;;;;;;;;;;15.50;55.59;99965.06;4995757;28;1898;-47
2022/12/10 10:11:02;;;;;;;;;;;;;;;17.03;52.78;99962.94;4978180;28;1366;-50
2022/12/10 10:13:30;;;;;;;;;;;;;;;16.55;53.64;99961.03;4995581;28;1404;-51
2022/12/10 10:15:55;;;;;;;;;;;;;;;16.05;54.99;99959.41;4995666;28;905;-55
2022/12/10 10:18:34;;;;;;;;;;;;;;;15.84;55.24;99955.22;4965300;28;1082;-49
2022/12/10 10:21:00;;;;;;;;;;;;;;;15.71;55.34;99946.53;4965494;28;1140;-51
2022/12/10 10:23:25;;;;;;;;;;;;;;;15.60;55.59;99950.47;4984544;28;1200;-47
2022/12/10 10:25:50;;;;;;;;;;;;;;;15.48;55.68;99939.88;4987815;28;2292;-44
2022/12/10 10:28:18;;;;;;;;;;;;;;;16.44;54.38;99938.41;4991324;28;1989;-51
2022/12/10 10:30:46;;;;;;;;;;;;;;;16.84;53.21;99936.22;4979042;28;1035;-49
2022/12/10 10:33:12;;;;;;;;;;;;;;;16.10;55.03;99922.06;4999123;28;1057;-49
2022/12/10 10:35:42;;;;;;;;;;;;;;;15.90;55.50;99924.72;4998664;28;1144;-50
2022/12/10 10:38:12;;;;;;;;;;;;;;;15.79;55.58;99919.59;4998522;28;1172;-50
2022/12/10 10:40:42;;;;;;;;;;;;;;;15.67;55.46;99914.50;4981008;28;1334;-51
2022/12/10 10:43:12;;;;;;;;;;;;;;;15.57;55.73;99916.25;4998555;28;1258;-53
2022/12/10 10:45:42;;;;;;;;;;;;;;;16.22;55.04;99922.47;4981695;28;1338;-45
2022/12/10 10:48:12;;;;;;;;;;;;;;;17.26;52.49;99909.00;4998627;28;1973;-49
2022/12/10 10:50:38;;;;;;;;;;;;;;;16.38;54.88;99920.34;4985541;28;1172;-49
2022/12/10 10:53:19;;;;;;;;;;;;;;;16.01;55.37;99898.00;4998345;28;1313;-48
2022/12/10 10:55:45;;;;;;;;;;;;;;;15.87;55.74;99903.38;4980948;28;2506;-49
2022/12/10 10:58:16;;;;;;;;;;;;;;;15.78;55.68;99905.09;4998324;28;1310;-54
2022/12/10 11:00:42;;;;;;;;;;;;;;;16.70;54.31;99891.41;4981269;28;1385;-54
2022/12/10 11:03:07;;;;;;;;;;;;;;;16.81;53.91;99901.13;4978121;28;1484;-53
2022/12/10 11:05:33;;;;;;;;;;;;;;;16.18;55.47;99894.00;4997433;28;1323;-53
2022/12/10 11:08:23;;;;;;;;;;;;;;;16.00;55.49;99896.38;4998566;28;1945;-48
2022/12/10 11:10:49;;;;;;;;;;;;;;;15.83;55.71;99890.53;4981907;28;1125;-51
2022/12/10 11:13:27;;;;;;;;;;;;;;;15.76;55.61;99890.03;4998211;28;1349;-51
2022/12/10 11:16:15;;;;;;;;;;;;;;;15.65;55.76;99887.38;4997913;28;1298;-49
2022/12/10 11:18:41;;;;;;;;;;;;;;;15.55;55.90;99895.72;4989675;28;1662;-52
2022/12/10 11:21:13;;;;;;;;;;;;;;;15.84;55.66;99897.66;4980704;28;1279;-53
2022/12/10 11:23:42;;;;;;;;;;;;;;;17.17;53.38;99884.16;4997882;28;1313;-50
2022/12/10 11:26:17;;;;;;;;;;;;;;;16.30;55.66;99882.59;4997388;28;2388;-51
2022/12/10 11:28:49;;;;;;;;;;;;;;;15.96;56.06;99880.81;4977820;28;1910;-51
2022/12/10 11:31:18;;;;;;;;;;;;;;;15.80;56.12;99871.94;4997508;28;1385;-52
2022/12/10 11:33:49;;;;;;;;;;;;;;;15.70;56.16;99870.91;4993487;28;1274;-47
2022/12/10 11:36:35;;;;;;;;;;;;;;;15.59;56.28;99863.88;4977217;28;1244;-52
2022/12/10 11:39:19;;;;;;;;;;;;;;;16.58;55.23;99853.44;4994173;28;1220;-50
2022/12/10 11:41:49;;;;;;;;;;;;;;;16.76;54.51;99858.09;4997758;28;1174;-49
2022/12/10 11:44:27;;;;;;;;;;;;;;;16.16;55.88;99852.31;4980360;28;1152;-54
2022/12/10 11:47:13;;;;;;;;;;;;;;;15.94;56.02;99844.66;4980053;28;1169;-50
2022/12/10 11:49:40;;;;;;;;;;;;;;;15.78;56.26;99849.44;4980154;28;1184;-48
2022/12/10 11:52:11;;;;;;;;;;;;;;;15.68;56.22;99856.69;4980019;28;1234;-52
2022/12/10 11:54:43;;;;;;;;;;;;;;;15.59;56.25;99861.16;4997652;28;986;-54
2022/12/10 11:57:27;;;;;;;;;;;;;;;15.51;56.17;99845.31;4997861;28;2402;-47
2022/12/10 11:59:58;;;;;;;;;;;;;;;16.47;55.20;99841.78;4997004;28;1286;-53
2022/12/10 12:02:36;;;;;;;;;;;;;;;16.44;55.75;99842.38;4980196;28;1188;-49
2022/12/10 12:05:20;;;;;;;;;;;;;;;15.91;56.72;99841.38;4984675;28;954;-51
2022/12/10 12:07:55;;;;;;;;;;;;;;;15.74;56.46;99855.50;4984320;28;1972;-47
2022/12/10 12:10:20;;;;;;;;;;;;;;;15.62;56.16;99841.38;4997259;28;1184;-51
2022/12/10 12:12:57;;;;;;;;;;;;;;;16.39;55.87;99843.25;4980033;28;1204;-46
2022/12/10 12:15:25;;;;;;;;;;;;;;;16.82;54.70;99838.81;4979670;28;1211;-48
2022/12/10 12:17:52;;;;;;;;;;;;;;;16.17;56.23;99851.22;4964326;28;1109;-52
2022/12/10 12:20:47;;;;;;;;;;;;;;;15.90;56.26;99853.44;4980257;28;1196;-49
2022/12/10 12:23:17;;;;;;;;;;;;;;;15.74;56.18;99852.75;4984101;28;2080;-46
2022/12/10 12:25:47;;;;;;;;;;;;;;;15.68;56.04;99862.16;4979722;28;1956;-48
2022/12/10 12:28:15;;;;;;;;;;;;;;;16.79;55.09;99861.34;4996826;28;1902;-50
2022/12/10 12:30:41;;;;;;;;;;;;;;;16.52;55.51;99862.84;4997070;28;1239;-49
2022/12/10 12:33:10;;;;;;;;;;;;;;;16.08;56.26;99860.09;4978576;28;1252;-49
2022/12/10 12:35:35;;;;;;;;;;;;;;;15.85;56.36;99844.44;4966491;28;1224;-47
2022/12/10 12:38:03;;;;;;;;;;;;;;;15.74;56.45;99843.75;4996460;28;1137;-49
2022/12/10 12:40:29;;;;;;;;;;;;;;;15.62;56.21;99846.06;4996266;28;1148;-50
2022/12/10 12:43:02;;;;;;;;;;;;;;;15.58;56.26;99837.59;4996289;28;1491;-50
2022/12/10 12:45:32;;;;;;;;;;;;;;;15.49;56.02;99829.19;4974752;28;1093;-53
2022/12/10 12:48:05;;;;;;;;;;;;;;;16.62;55.45;99818.78;4972241;28;1918;-46
2022/12/10 12:50:49;;;;;;;;;;;;;;;16.85;54.80;99829.97;4965789;28;1090;-47
2022/12/10 12:53:15;;;;;;;;;;;;;;;16.13;56.50;99812.59;4996410;28;928;-47
2022/12/10 12:55:59;;;;;;;;;;;;;;;15.88;56.53;99820.03;4996887;28;1292;-49
2022/12/10 12:58:30;;;;;;;;;;;;;;;15.77;56.18;99814.91;4977323;28;1109;-51
2022/12/10 13:00:58;;;;;;;;;;;;;;;15.66;56.24;99808.75;4993767;28;983;-52
2022/12/10 13:03:23;;;;;;;;;;;;;;;15.54;56.19;99812.69;4996562;28;1137;-49